sensor_id;sensor_type;location;lat;lon;timestamp;pressure;altitude;pressure_sealevel;temperature;humidity
15670;BME280;18524;45.190;5.732;2022-07-29T00:02:23;98842.53;;;28.69;38.06
15670;BME280;18524;45.190;5.732;2022-07-29T00:07:13;98854.22;;;28.58;37.69
15670;BME280;18524;45.190;5.732;2022-07-29T00:12:04;98848.25;;;28.56;36.79
15670;BME280;18524;45.190;5.732;2022-07-29T00:16:54;98850.72;;;28.57;38.30
15670;BME280;18524;45.190;5.732;2022-07-29T00:21:45;98845.63;;;28.61;38.69
15670;BME280;18524;45.190;5.732;2022-07-29T00:26:35;98847.44;;;28.55;37.63
15670;BME280;18524;45.190;5.732;2022-07-29T00:31:26;98850.16;;;28.39;38.20
15670;BME280;18524;45.190;5.732;2022-07-29T00:36:16;98850.16;;;28.39;37.18
15670;BME280;18524;45.190;5.732;2022-07-29T00:41:06;98853.66;;;28.56;37.44
15670;BME280;18524;45.190;5.732;2022-07-29T00:45:57;98856.34;;;28.22;37.56
15670;BME280;18524;45.190;5.732;2022-07-29T00:50:49;98847.84;;;27.97;38.71
15670;BME280;18524;45.190;5.732;2022-07-29T00:55:39;98843.84;;;27.99;39.79
15670;BME280;18524;45.190;5.732;2022-07-29T01:00:29;98851.66;;;28.29;40.65
15670;BME280;18524;45.190;5.732;2022-07-29T01:05:21;98846.16;;;28.24;39.06
15670;BME280;18524;45.190;5.732;2022-07-29T01:10:14;98839.50;;;27.98;39.32
15670;BME280;18524;45.190;5.732;2022-07-29T01:15:06;98846.81;;;27.86;39.27
15670;BME280;18524;45.190;5.732;2022-07-29T01:20:07;98843.81;;;27.54;40.23
15670;BME280;18524;45.190;5.732;2022-07-29T01:25:17;98849.53;;;27.18;39.35
15670;BME280;18524;45.190;5.732;2022-07-29T01:30:10;98850.72;;;27.10;42.09
15670;BME280;18524;45.190;5.732;2022-07-29T01:35:17;98860.72;;;27.38;40.85
15670;BME280;18524;45.190;5.732;2022-07-29T01:45:26;98844.38;;;27.85;40.29
15670;BME280;18524;45.190;5.732;2022-07-29T01:50:20;98850.34;;;27.58;40.51
15670;BME280;18524;45.190;5.732;2022-07-29T01:55:15;98851.56;;;27.39;41.96
15670;BME280;18524;45.190;5.732;2022-07-29T02:00:07;98854.25;;;27.39;40.68
15670;BME280;18524;45.190;5.732;2022-07-29T02:04:58;98853.53;;;27.44;40.44
15670;BME280;18524;45.190;5.732;2022-07-29T02:09:50;98848.59;;;27.24;41.07
15670;BME280;18524;45.190;5.732;2022-07-29T02:14:46;98852.78;;;27.60;41.36
15670;BME280;18524;45.190;5.732;2022-07-29T02:19:38;98858.88;;;27.27;40.04
15670;BME280;18524;45.190;5.732;2022-07-29T02:24:30;98862.16;;;27.29;41.50
15670;BME280;18524;45.190;5.732;2022-07-29T02:29:23;98846.81;;;27.29;41.21
15670;BME280;18524;45.190;5.732;2022-07-29T02:34:15;98841.44;;;27.29;40.67
15670;BME280;18524;45.190;5.732;2022-07-29T02:39:07;98858.22;;;27.48;41.26
15670;BME280;18524;45.190;5.732;2022-07-29T02:44:04;98861.28;;;27.52;39.58
15670;BME280;18524;45.190;5.732;2022-07-29T02:54:07;98857.97;;;27.50;41.15
15670;BME280;18524;45.190;5.732;2022-07-29T02:59:02;98856.03;;;27.33;40.50
15670;BME280;18524;45.190;5.732;2022-07-29T03:03:53;98853.44;;;27.38;40.95
15670;BME280;18524;45.190;5.732;2022-07-29T03:08:44;98860.19;;;27.13;40.99
15670;BME280;18524;45.190;5.732;2022-07-29T03:13:36;98863.13;;;27.11;41.76
15670;BME280;18524;45.190;5.732;2022-07-29T03:18:27;98869.78;;;26.97;41.65
15670;BME280;18524;45.190;5.732;2022-07-29T03:23:21;98872.47;;;27.08;41.43
15670;BME280;18524;45.190;5.732;2022-07-29T03:28:13;98880.56;;;27.08;41.13
15670;BME280;18524;45.190;5.732;2022-07-29T03:33:04;98865.34;;;27.14;41.66
15670;BME280;18524;45.190;5.732;2022-07-29T03:37:54;98876.94;;;26.91;41.67
15670;BME280;18524;45.190;5.732;2022-07-29T03:42:45;98895.31;;;26.94;43.03
15670;BME280;18524;45.190;5.732;2022-07-29T03:47:40;98900.94;;;26.81;42.60
15670;BME280;18524;45.190;5.732;2022-07-29T03:52:33;98906.66;;;26.73;43.58
15670;BME280;18524;45.190;5.732;2022-07-29T03:57:27;98910.41;;;26.95;42.90
15670;BME280;18524;45.190;5.732;2022-07-29T04:02:18;98911.72;;;27.04;42.12
15670;BME280;18524;45.190;5.732;2022-07-29T04:07:13;98923.63;;;27.08;42.55
15670;BME280;18524;45.190;5.732;2022-07-29T04:12:04;98912.97;;;26.43;42.29
15670;BME280;18524;45.190;5.732;2022-07-29T04:16:55;98922.00;;;26.31;42.70
15670;BME280;18524;45.190;5.732;2022-07-29T04:21:45;98925.28;;;26.21;43.48
15670;BME280;18524;45.190;5.732;2022-07-29T04:26:35;98923.81;;;26.37;43.68
15670;BME280;18524;45.190;5.732;2022-07-29T04:31:26;98935.22;;;26.32;44.01
15670;BME280;18524;45.190;5.732;2022-07-29T04:36:16;98937.75;;;26.45;43.42
15670;BME280;18524;45.190;5.732;2022-07-29T04:41:07;98938.94;;;26.73;43.74
15670;BME280;18524;45.190;5.732;2022-07-29T04:45:58;98936.28;;;26.85;43.26
15670;BME280;18524;45.190;5.732;2022-07-29T04:50:49;98936.84;;;26.75;43.02
15670;BME280;18524;45.190;5.732;2022-07-29T04:55:39;98945.72;;;26.64;43.03
15670;BME280;18524;45.190;5.732;2022-07-29T05:00:29;98942.09;;;26.70;42.97
15670;BME280;18524;45.190;5.732;2022-07-29T05:05:20;98952.38;;;26.61;42.39
15670;BME280;18524;45.190;5.732;2022-07-29T05:10:10;98959.63;;;26.61;42.88
15670;BME280;18524;45.190;5.732;2022-07-29T05:15:01;98963.53;;;26.88;43.22
15670;BME280;18524;45.190;5.732;2022-07-29T05:19:52;98961.53;;;26.95;42.63
15670;BME280;18524;45.190;5.732;2022-07-29T05:24:42;98958.41;;;26.98;42.05
15670;BME280;18524;45.190;5.732;2022-07-29T05:29:33;98952.56;;;27.01;41.95
15670;BME280;18524;45.190;5.732;2022-07-29T05:34:23;98962.06;;;27.16;41.50
15670;BME280;18524;45.190;5.732;2022-07-29T05:39:15;98972.53;;;27.64;41.58
15670;BME280;18524;45.190;5.732;2022-07-29T05:44:05;98968.03;;;27.81;41.00
15670;BME280;18524;45.190;5.732;2022-07-29T05:48:55;98973.00;;;28.01;40.43
15670;BME280;18524;45.190;5.732;2022-07-29T05:53:46;98972.81;;;28.19;39.47
15670;BME280;18524;45.190;5.732;2022-07-29T05:58:36;98977.41;;;28.81;38.62
15670;BME280;18524;45.190;5.732;2022-07-29T06:03:27;98974.56;;;28.71;39.41
15670;BME280;18524;45.190;5.732;2022-07-29T06:08:18;98989.56;;;28.50;38.45
15670;BME280;18524;45.190;5.732;2022-07-29T06:13:09;98991.13;;;28.46;39.12
15670;BME280;18524;45.190;5.732;2022-07-29T06:17:59;98987.75;;;28.39;39.06
15670;BME280;18524;45.190;5.732;2022-07-29T06:22:50;98984.75;;;28.23;39.17
15670;BME280;18524;45.190;5.732;2022-07-29T06:27:40;98990.34;;;28.05;38.23
15670;BME280;18524;45.190;5.732;2022-07-29T06:32:30;98986.50;;;28.01;38.87
15670;BME280;18524;45.190;5.732;2022-07-29T06:37:21;98985.19;;;28.03;40.14
15670;BME280;18524;45.190;5.732;2022-07-29T06:42:12;98990.88;;;27.79;41.55
15670;BME280;18524;45.190;5.732;2022-07-29T06:47:02;99005.91;;;28.15;40.10
15670;BME280;18524;45.190;5.732;2022-07-29T06:51:54;98996.25;;;28.92;38.79
15670;BME280;18524;45.190;5.732;2022-07-29T06:56:44;99005.72;;;28.95;38.39
15670;BME280;18524;45.190;5.732;2022-07-29T07:01:36;99014.16;;;29.15;36.82
15670;BME280;18524;45.190;5.732;2022-07-29T07:06:27;99008.25;;;28.68;37.41
15670;BME280;18524;45.190;5.732;2022-07-29T07:11:17;99027.00;;;28.29;38.21
15670;BME280;18524;45.190;5.732;2022-07-29T07:16:08;99024.16;;;27.96;39.44
15670;BME280;18524;45.190;5.732;2022-07-29T07:20:58;99022.75;;;27.93;38.78
15670;BME280;18524;45.190;5.732;2022-07-29T07:25:48;99033.06;;;27.85;38.34
15670;BME280;18524;45.190;5.732;2022-07-29T07:30:39;99032.22;;;27.96;39.25
15670;BME280;18524;45.190;5.732;2022-07-29T07:35:30;99034.84;;;27.91;39.38
15670;BME280;18524;45.190;5.732;2022-07-29T07:40:20;99037.88;;;27.83;38.72
15670;BME280;18524;45.190;5.732;2022-07-29T07:45:11;99040.47;;;27.78;39.09
15670;BME280;18524;45.190;5.732;2022-07-29T07:50:03;99034.75;;;27.51;38.93
15670;BME280;18524;45.190;5.732;2022-07-29T07:54:53;99033.56;;;27.35;39.40
15670;BME280;18524;45.190;5.732;2022-07-29T07:59:43;99031.59;;;27.54;40.88
15670;BME280;18524;45.190;5.732;2022-07-29T08:04:34;99031.81;;;27.52;40.75
15670;BME280;18524;45.190;5.732;2022-07-29T08:09:26;99027.00;;;27.78;39.98
15670;BME280;18524;45.190;5.732;2022-07-29T08:14:17;99042.00;;;27.74;40.12
15670;BME280;18524;45.190;5.732;2022-07-29T08:19:08;99048.31;;;27.91;40.27
15670;BME280;18524;45.190;5.732;2022-07-29T08:23:59;99049.66;;;28.05;39.70
15670;BME280;18524;45.190;5.732;2022-07-29T08:29:10;99060.59;;;27.87;40.44
15670;BME280;18524;45.190;5.732;2022-07-29T08:34:02;99067.41;;;27.42;40.27
15670;BME280;18524;45.190;5.732;2022-07-29T08:38:53;99111.75;;;27.05;42.24
15670;BME280;18524;45.190;5.732;2022-07-29T08:43:44;99171.94;;;27.10;42.47
15670;BME280;18524;45.190;5.732;2022-07-29T08:48:35;99194.72;;;27.26;43.26
15670;BME280;18524;45.190;5.732;2022-07-29T08:53:28;99221.78;;;27.01;45.17
15670;BME280;18524;45.190;5.732;2022-07-29T08:58:19;99240.63;;;26.65;50.81
15670;BME280;18524;45.190;5.732;2022-07-29T09:03:12;99254.09;;;26.65;56.40
15670;BME280;18524;45.190;5.732;2022-07-29T09:08:04;99275.84;;;26.20;54.34
15670;BME280;18524;45.190;5.732;2022-07-29T09:12:55;99295.31;;;25.91;54.92
15670;BME280;18524;45.190;5.732;2022-07-29T09:17:48;99310.00;;;25.18;58.33
15670;BME280;18524;45.190;5.732;2022-07-29T09:22:39;99325.38;;;24.98;62.22
15670;BME280;18524;45.190;5.732;2022-07-29T09:27:29;99331.03;;;24.50;65.85
15670;BME280;18524;45.190;5.732;2022-07-29T09:32:20;99350.81;;;24.10;67.19
15670;BME280;18524;45.190;5.732;2022-07-29T09:37:10;99352.41;;;24.83;64.32
15670;BME280;18524;45.190;5.732;2022-07-29T09:42:04;99350.72;;;25.09;62.03
15670;BME280;18524;45.190;5.732;2022-07-29T09:47:03;99350.91;;;25.14;63.17
15670;BME280;18524;45.190;5.732;2022-07-29T09:52:07;99348.34;;;25.39;61.81
15670;BME280;18524;45.190;5.732;2022-07-29T09:56:57;99354.88;;;25.49;62.97
15670;BME280;18524;45.190;5.732;2022-07-29T10:01:48;99346.00;;;25.49;64.86
15670;BME280;18524;45.190;5.732;2022-07-29T10:07:00;99352.16;;;25.56;62.37
15670;BME280;18524;45.190;5.732;2022-07-29T10:12:04;99356.63;;;25.75;61.72
15670;BME280;18524;45.190;5.732;2022-07-29T10:16:55;99344.41;;;25.79;60.91
15670;BME280;18524;45.190;5.732;2022-07-29T10:21:45;99339.34;;;25.58;61.34
15670;BME280;18524;45.190;5.732;2022-07-29T10:26:36;99339.47;;;25.76;62.32
15670;BME280;18524;45.190;5.732;2022-07-29T10:31:48;99341.28;;;25.82;61.79
15670;BME280;18524;45.190;5.732;2022-07-29T10:42:39;99348.75;;;25.80;64.92
15670;BME280;18524;45.190;5.732;2022-07-29T10:47:30;99355.19;;;25.35;66.60
15670;BME280;18524;45.190;5.732;2022-07-29T10:52:20;99358.88;;;25.40;64.23
15670;BME280;18524;45.190;5.732;2022-07-29T10:57:19;99355.16;;;24.44;69.34
15670;BME280;18524;45.190;5.732;2022-07-29T11:07:36;99362.34;;;23.90;70.07
15670;BME280;18524;45.190;5.732;2022-07-29T11:17:27;99354.94;;;24.65;67.41
15670;BME280;18524;45.190;5.732;2022-07-29T11:22:34;99362.38;;;24.70;66.47
15670;BME280;18524;45.190;5.732;2022-07-29T11:27:30;99355.78;;;24.59;66.35
15670;BME280;18524;45.190;5.732;2022-07-29T11:32:40;99347.13;;;24.50;68.48
15670;BME280;18524;45.190;5.732;2022-07-29T11:37:30;99336.59;;;24.49;68.98
15670;BME280;18524;45.190;5.732;2022-07-29T11:47:19;99329.38;;;24.43;70.09
15670;BME280;18524;45.190;5.732;2022-07-29T11:52:10;99331.06;;;24.37;70.10
15670;BME280;18524;45.190;5.732;2022-07-29T11:57:01;99325.47;;;24.45;70.90
15670;BME280;18524;45.190;5.732;2022-07-29T12:01:55;99347.13;;;24.24;69.77
15670;BME280;18524;45.190;5.732;2022-07-29T12:06:53;99335.41;;;25.16;66.03
15670;BME280;18524;45.190;5.732;2022-07-29T12:11:44;99320.19;;;25.03;65.82
15670;BME280;18524;45.190;5.732;2022-07-29T12:16:36;99322.22;;;25.14;66.14
15670;BME280;18524;45.190;5.732;2022-07-29T12:21:27;99312.94;;;25.48;64.12
15670;BME280;18524;45.190;5.732;2022-07-29T12:26:17;99313.47;;;25.25;65.27
15670;BME280;18524;45.190;5.732;2022-07-29T12:31:15;99316.38;;;25.31;66.89
15670;BME280;18524;45.190;5.732;2022-07-29T12:36:06;99313.09;;;25.22;66.72
15670;BME280;18524;45.190;5.732;2022-07-29T12:40:57;99308.09;;;25.32;66.63
15670;BME280;18524;45.190;5.732;2022-07-29T12:45:52;99310.34;;;24.77;69.56
15670;BME280;18524;45.190;5.732;2022-07-29T12:50:57;99299.09;;;25.13;68.97
15670;BME280;18524;45.190;5.732;2022-07-29T12:55:50;99300.13;;;26.32;70.01
15670;BME280;18524;45.190;5.732;2022-07-29T13:00:41;99291.84;;;27.43;58.93
15670;BME280;18524;45.190;5.732;2022-07-29T13:05:42;99278.06;;;27.93;58.48
15670;BME280;18524;45.190;5.732;2022-07-29T13:10:35;99267.88;;;27.95;56.48
15670;BME280;18524;45.190;5.732;2022-07-29T13:15:26;99269.34;;;27.67;56.49
15670;BME280;18524;45.190;5.732;2022-07-29T13:20:17;99259.00;;;28.29;56.34
15670;BME280;18524;45.190;5.732;2022-07-29T13:25:09;99256.84;;;27.96;54.39
15670;BME280;18524;45.190;5.732;2022-07-29T13:30:01;99257.91;;;27.95;55.16
15670;BME280;18524;45.190;5.732;2022-07-29T13:34:52;99253.78;;;28.05;55.36
15670;BME280;18524;45.190;5.732;2022-07-29T13:39:43;99238.53;;;28.10;53.91
15670;BME280;18524;45.190;5.732;2022-07-29T13:44:33;99220.94;;;27.84;56.15
15670;BME280;18524;45.190;5.732;2022-07-29T13:49:24;99215.47;;;27.91;56.80
15670;BME280;18524;45.190;5.732;2022-07-29T13:54:15;99216.25;;;27.80;57.27
15670;BME280;18524;45.190;5.732;2022-07-29T13:59:05;99211.22;;;27.30;58.65
15670;BME280;18524;45.190;5.732;2022-07-29T14:03:56;99195.50;;;26.97;59.05
15670;BME280;18524;45.190;5.732;2022-07-29T14:08:46;99187.03;;;27.12;59.15
15670;BME280;18524;45.190;5.732;2022-07-29T14:13:36;99182.75;;;26.92;58.22
15670;BME280;18524;45.190;5.732;2022-07-29T14:18:27;99182.22;;;26.54;59.33
15670;BME280;18524;45.190;5.732;2022-07-29T14:23:17;99172.00;;;26.01;59.88
15670;BME280;18524;45.190;5.732;2022-07-29T14:28:08;99161.13;;;26.32;61.85
15670;BME280;18524;45.190;5.732;2022-07-29T14:32:58;99159.97;;;26.46;60.38
15670;BME280;18524;45.190;5.732;2022-07-29T14:37:49;99151.25;;;26.63;59.75
15670;BME280;18524;45.190;5.732;2022-07-29T14:42:39;99143.09;;;26.33;60.67
15670;BME280;18524;45.190;5.732;2022-07-29T14:47:30;99148.59;;;26.44;60.55
15670;BME280;18524;45.190;5.732;2022-07-29T14:52:20;99137.94;;;26.68;59.27
15670;BME280;18524;45.190;5.732;2022-07-29T14:57:10;99142.19;;;26.45;60.15
15670;BME280;18524;45.190;5.732;2022-07-29T15:02:01;99132.16;;;26.53;59.85
15670;BME280;18524;45.190;5.732;2022-07-29T15:06:51;99123.69;;;26.31;60.90
15670;BME280;18524;45.190;5.732;2022-07-29T15:11:42;99121.38;;;26.53;60.28
15670;BME280;18524;45.190;5.732;2022-07-29T15:16:35;99126.69;;;26.59;56.99
15670;BME280;18524;45.190;5.732;2022-07-29T15:21:25;99128.59;;;26.40;56.80
15670;BME280;18524;45.190;5.732;2022-07-29T15:26:16;99119.22;;;26.73;57.43
15670;BME280;18524;45.190;5.732;2022-07-29T15:31:06;99109.72;;;26.59;58.34
15670;BME280;18524;45.190;5.732;2022-07-29T15:35:56;99114.38;;;26.52;57.12
15670;BME280;18524;45.190;5.732;2022-07-29T15:40:47;99110.84;;;26.51;54.96
15670;BME280;18524;45.190;5.732;2022-07-29T15:45:39;99109.94;;;26.87;56.43
15670;BME280;18524;45.190;5.732;2022-07-29T15:50:30;99097.56;;;26.68;57.64
15670;BME280;18524;45.190;5.732;2022-07-29T15:55:20;99103.78;;;26.68;57.28
15670;BME280;18524;45.190;5.732;2022-07-29T16:00:11;99100.16;;;26.74;57.63
15670;BME280;18524;45.190;5.732;2022-07-29T16:05:02;99093.31;;;26.90;57.24
15670;BME280;18524;45.190;5.732;2022-07-29T16:09:53;99087.78;;;27.15;54.76
15670;BME280;18524;45.190;5.732;2022-07-29T16:14:43;99083.94;;;27.23;53.50
15670;BME280;18524;45.190;5.732;2022-07-29T16:19:34;99078.50;;;27.11;52.33
15670;BME280;18524;45.190;5.732;2022-07-29T16:24:24;99077.09;;;27.08;54.67
15670;BME280;18524;45.190;5.732;2022-07-29T16:29:18;99077.81;;;27.04;53.46
15670;BME280;18524;45.190;5.732;2022-07-29T16:34:09;99070.44;;;27.11;53.99
15670;BME280;18524;45.190;5.732;2022-07-29T16:38:59;99060.94;;;27.08;53.70
15670;BME280;18524;45.190;5.732;2022-07-29T16:43:49;99062.34;;;26.99;51.77
15670;BME280;18524;45.190;5.732;2022-07-29T16:48:40;99059.91;;;27.09;53.36
15670;BME280;18524;45.190;5.732;2022-07-29T16:53:31;99059.13;;;27.21;51.47
15670;BME280;18524;45.190;5.732;2022-07-29T16:58:21;99070.00;;;27.14;49.02
15670;BME280;18524;45.190;5.732;2022-07-29T17:03:12;99072.91;;;27.13;50.38
15670;BME280;18524;45.190;5.732;2022-07-29T17:08:02;99071.53;;;27.22;51.89
15670;BME280;18524;45.190;5.732;2022-07-29T17:12:52;99078.78;;;27.33;49.65
15670;BME280;18524;45.190;5.732;2022-07-29T17:17:44;99075.03;;;27.34;51.60
15670;BME280;18524;45.190;5.732;2022-07-29T17:22:35;99083.78;;;27.06;48.54
15670;BME280;18524;45.190;5.732;2022-07-29T17:27:25;99086.88;;;26.79;50.61
15670;BME280;18524;45.190;5.732;2022-07-29T17:32:16;99079.91;;;27.02;52.31
15670;BME280;18524;45.190;5.732;2022-07-29T17:37:07;99090.91;;;27.00;49.14
15670;BME280;18524;45.190;5.732;2022-07-29T17:41:58;99096.28;;;27.00;51.24
15670;BME280;18524;45.190;5.732;2022-07-29T17:46:49;99107.06;;;27.00;51.37
15670;BME280;18524;45.190;5.732;2022-07-29T17:51:39;99103.34;;;27.13;50.96
15670;BME280;18524;45.190;5.732;2022-07-29T17:56:29;99100.78;;;27.18;50.86
15670;BME280;18524;45.190;5.732;2022-07-29T18:01:20;99103.97;;;27.38;49.24
15670;BME280;18524;45.190;5.732;2022-07-29T18:06:10;99100.41;;;27.03;46.99
15670;BME280;18524;45.190;5.732;2022-07-29T18:11:01;99114.03;;;27.20;50.27
15670;BME280;18524;45.190;5.732;2022-07-29T18:15:52;99118.94;;;27.34;49.95
15670;BME280;18524;45.190;5.732;2022-07-29T18:20:42;99125.38;;;27.33;48.28
15670;BME280;18524;45.190;5.732;2022-07-29T18:25:33;99133.56;;;27.15;47.97
15670;BME280;18524;45.190;5.732;2022-07-29T18:30:23;99137.44;;;26.89;48.04
15670;BME280;18524;45.190;5.732;2022-07-29T18:35:15;99135.09;;;26.81;50.36
15670;BME280;18524;45.190;5.732;2022-07-29T18:40:06;99145.06;;;26.62;49.38
15670;BME280;18524;45.190;5.732;2022-07-29T18:44:57;99145.19;;;26.67;51.70
15670;BME280;18524;45.190;5.732;2022-07-29T18:49:48;99150.94;;;26.71;51.48
15670;BME280;18524;45.190;5.732;2022-07-29T18:54:38;99159.09;;;26.64;52.20
15670;BME280;18524;45.190;5.732;2022-07-29T18:59:28;99165.78;;;26.73;52.62
15670;BME280;18524;45.190;5.732;2022-07-29T19:04:19;99163.78;;;26.69;52.09
15670;BME280;18524;45.190;5.732;2022-07-29T19:09:10;99158.31;;;26.75;52.54
15670;BME280;18524;45.190;5.732;2022-07-29T19:14:00;99162.69;;;26.76;51.91
15670;BME280;18524;45.190;5.732;2022-07-29T19:18:51;99162.06;;;26.74;51.89
15670;BME280;18524;45.190;5.732;2022-07-29T19:23:41;99176.91;;;26.47;52.97
15670;BME280;18524;45.190;5.732;2022-07-29T19:28:31;99177.63;;;26.72;52.91
15670;BME280;18524;45.190;5.732;2022-07-29T19:33:22;99176.75;;;26.60;52.61
15670;BME280;18524;45.190;5.732;2022-07-29T19:38:13;99185.81;;;26.47;52.79
15670;BME280;18524;45.190;5.732;2022-07-29T19:43:04;99187.06;;;26.63;52.78
15670;BME280;18524;45.190;5.732;2022-07-29T19:47:55;99203.69;;;26.42;54.54
15670;BME280;18524;45.190;5.732;2022-07-29T19:52:45;99206.13;;;26.62;54.46
15670;BME280;18524;45.190;5.732;2022-07-29T19:57:36;99209.22;;;26.95;53.39
15670;BME280;18524;45.190;5.732;2022-07-29T20:02:26;99210.34;;;26.88;53.28
15670;BME280;18524;45.190;5.732;2022-07-29T20:07:16;99215.81;;;26.63;54.64
15670;BME280;18524;45.190;5.732;2022-07-29T20:12:08;99225.84;;;26.56;55.10
15670;BME280;18524;45.190;5.732;2022-07-29T20:16:59;99226.00;;;26.61;55.08
15670;BME280;18524;45.190;5.732;2022-07-29T20:21:49;99223.97;;;26.38;55.21
15670;BME280;18524;45.190;5.732;2022-07-29T20:26:40;99233.44;;;26.22;55.35
15670;BME280;18524;45.190;5.732;2022-07-29T20:31:31;99240.28;;;26.18;56.29
15670;BME280;18524;45.190;5.732;2022-07-29T20:36:21;99237.88;;;26.53;55.18
15670;BME280;18524;45.190;5.732;2022-07-29T20:41:13;99243.03;;;26.36;55.03
15670;BME280;18524;45.190;5.732;2022-07-29T20:46:03;99236.84;;;26.11;57.02
15670;BME280;18524;45.190;5.732;2022-07-29T20:50:53;99243.50;;;25.83;57.78
15670;BME280;18524;45.190;5.732;2022-07-29T20:55:44;99241.47;;;25.79;58.51
15670;BME280;18524;45.190;5.732;2022-07-29T21:00:34;99234.69;;;26.20;56.93
15670;BME280;18524;45.190;5.732;2022-07-29T21:05:25;99228.78;;;26.29;55.85
15670;BME280;18524;45.190;5.732;2022-07-29T21:10:15;99227.72;;;26.37;55.70
15670;BME280;18524;45.190;5.732;2022-07-29T21:15:07;99231.22;;;26.37;56.03
15670;BME280;18524;45.190;5.732;2022-07-29T21:20:03;99231.41;;;26.42;55.14
15670;BME280;18524;45.190;5.732;2022-07-29T21:24:54;99235.94;;;26.42;55.20
15670;BME280;18524;45.190;5.732;2022-07-29T21:29:44;99235.53;;;26.20;55.77
15670;BME280;18524;45.190;5.732;2022-07-29T21:34:35;99236.47;;;26.51;54.88
15670;BME280;18524;45.190;5.732;2022-07-29T21:39:25;99240.50;;;26.60;54.61
15670;BME280;18524;45.190;5.732;2022-07-29T21:44:16;99237.22;;;26.39;55.12
15670;BME280;18524;45.190;5.732;2022-07-29T21:49:08;99244.09;;;26.29;55.66
15670;BME280;18524;45.190;5.732;2022-07-29T21:53:58;99248.75;;;26.22;56.19
15670;BME280;18524;45.190;5.732;2022-07-29T21:58:49;99254.94;;;26.22;55.83
15670;BME280;18524;45.190;5.732;2022-07-29T22:03:39;99250.06;;;26.12;56.52
15670;BME280;18524;45.190;5.732;2022-07-29T22:08:30;99264.72;;;25.92;56.95
15670;BME280;18524;45.190;5.732;2022-07-29T22:13:20;99271.13;;;25.91;57.47
15670;BME280;18524;45.190;5.732;2022-07-29T22:18:10;99273.44;;;26.12;57.09
15670;BME280;18524;45.190;5.732;2022-07-29T22:23:01;99282.50;;;26.17;56.75
15670;BME280;18524;45.190;5.732;2022-07-29T22:27:51;99292.81;;;26.21;57.16
15670;BME280;18524;45.190;5.732;2022-07-29T22:32:42;99286.31;;;26.28;55.66
15670;BME280;18524;45.190;5.732;2022-07-29T22:37:32;99303.72;;;26.26;56.30
15670;BME280;18524;45.190;5.732;2022-07-29T22:42:23;99297.03;;;26.35;56.02
15670;BME280;18524;45.190;5.732;2022-07-29T22:47:13;99305.81;;;26.24;56.11
15670;BME280;18524;45.190;5.732;2022-07-29T22:52:04;99315.56;;;26.18;55.94
15670;BME280;18524;45.190;5.732;2022-07-29T22:56:54;99317.78;;;26.03;57.07
15670;BME280;18524;45.190;5.732;2022-07-29T23:01:44;99325.59;;;25.79;57.62
15670;BME280;18524;45.190;5.732;2022-07-29T23:06:35;99327.13;;;25.69;58.44
15670;BME280;18524;45.190;5.732;2022-07-29T23:11:25;99329.03;;;25.55;58.76
15670;BME280;18524;45.190;5.732;2022-07-29T23:16:16;99331.56;;;25.43;59.59
15670;BME280;18524;45.190;5.732;2022-07-29T23:21:06;99328.38;;;25.66;58.91
15670;BME280;18524;45.190;5.732;2022-07-29T23:25:56;99324.56;;;25.80;58.38
15670;BME280;18524;45.190;5.732;2022-07-29T23:30:47;99323.03;;;25.91;57.81
15670;BME280;18524;45.190;5.732;2022-07-29T23:35:37;99319.91;;;25.69;58.45
15670;BME280;18524;45.190;5.732;2022-07-29T23:40:28;99316.28;;;25.44;59.35
15670;BME280;18524;45.190;5.732;2022-07-29T23:45:18;99319.19;;;25.42;59.40
15670;BME280;18524;45.190;5.732;2022-07-29T23:50:10;99317.88;;;25.51;59.27
15670;BME280;18524;45.190;5.732;2022-07-29T23:55:01;99319.16;;;25.49;59.64
15670;BME280;18524;45.190;5.732;2022-07-29T23:59:51;99312.44;;;25.27;60.16
